createdAt,value
2019-03-31T00:01:15.795Z,99.90
2019-03-31T00:03:43.885Z,99.90
2019-03-31T00:06:11.982Z,99.90
2019-03-31T00:08:40.040Z,99.90
2019-03-31T00:11:08.114Z,99.90
2019-03-31T00:13:36.811Z,99.90
2019-03-31T00:16:05.268Z,99.90
2019-03-31T00:18:33.350Z,99.90
2019-03-31T00:21:01.436Z,99.90
2019-03-31T00:23:29.485Z,99.90
2019-03-31T00:25:57.872Z,99.90
2019-03-31T00:28:25.967Z,99.90
2019-03-31T00:30:54.711Z,99.90
2019-03-31T00:35:50.326Z,99.90
2019-03-31T00:38:18.439Z,99.90
2019-03-31T00:40:46.533Z,99.90
2019-03-31T00:43:14.683Z,99.90
2019-03-31T00:45:42.950Z,99.90
2019-03-31T00:48:11.034Z,99.90
2019-03-31T00:50:39.144Z,99.90
2019-03-31T00:53:07.193Z,99.90
2019-03-31T00:55:35.297Z,99.90
2019-03-31T00:58:03.429Z,99.90
2019-03-31T01:00:49.573Z,99.90
2019-03-31T01:03:19.041Z,99.90
2019-03-31T01:05:47.296Z,99.90
2019-03-31T01:08:16.123Z,99.90
2019-03-31T01:10:44.363Z,99.90
2019-03-31T01:13:12.818Z,99.90
2019-03-31T01:15:41.522Z,99.90
2019-03-31T01:18:09.605Z,99.90
2019-03-31T01:20:37.696Z,99.90
2019-03-31T01:23:05.846Z,99.90
2019-03-31T01:25:34.045Z,99.90
2019-03-31T01:28:02.094Z,99.90
2019-03-31T01:30:30.170Z,99.90
2019-03-31T01:32:58.333Z,99.90
2019-03-31T01:35:26.802Z,99.90
2019-03-31T01:37:54.923Z,99.90
2019-03-31T01:40:22.999Z,99.90
2019-03-31T01:42:51.164Z,99.90
2019-03-31T01:45:19.291Z,99.90
2019-03-31T01:47:47.346Z,99.90
2019-03-31T01:50:15.642Z,99.90
2019-03-31T01:52:43.949Z,99.90
2019-03-31T01:55:12.102Z,99.90
2019-03-31T01:57:40.214Z,99.90
2019-03-31T02:00:10.335Z,99.90
2019-03-31T02:02:38.502Z,99.90
2019-03-31T02:05:06.940Z,99.90
2019-03-31T02:07:35.258Z,99.90
2019-03-31T02:10:04.165Z,99.90
2019-03-31T02:12:32.338Z,99.90
2019-03-31T02:15:00.485Z,99.90
2019-03-31T02:17:28.574Z,99.90
2019-03-31T02:19:56.633Z,99.90
2019-03-31T02:22:25.033Z,99.90
2019-03-31T02:24:53.078Z,99.90
2019-03-31T02:27:21.169Z,99.90
2019-03-31T02:29:49.226Z,99.90
2019-03-31T02:32:24.283Z,99.90
2019-03-31T02:34:47.212Z,99.90
2019-03-31T02:37:15.314Z,99.90
2019-03-31T02:39:43.364Z,99.90
2019-03-31T02:42:11.446Z,99.90
2019-03-31T02:44:39.502Z,99.90
2019-03-31T02:47:07.603Z,99.90
2019-03-31T02:49:35.743Z,99.90
2019-03-31T02:52:03.846Z,99.90
2019-03-31T02:54:32.067Z,99.90
2019-03-31T02:57:00.358Z,99.90
2019-03-31T02:59:30.205Z,99.90
2019-03-31T03:01:58.407Z,99.90
2019-03-31T03:04:28.127Z,99.90
2019-03-31T03:06:56.239Z,99.90
2019-03-31T03:09:25.470Z,99.90
2019-03-31T03:11:54.234Z,99.90
2019-03-31T03:14:23.941Z,99.90
2019-03-31T03:16:52.011Z,99.90
2019-03-31T03:19:20.181Z,99.90
2019-03-31T03:21:48.257Z,99.90
2019-03-31T03:24:16.356Z,99.90
2019-03-31T03:26:44.420Z,99.90
2019-03-31T03:29:12.563Z,99.90
2019-03-31T03:31:40.651Z,99.90
2019-03-31T03:34:08.815Z,99.90
2019-03-31T03:36:36.869Z,99.90
2019-03-31T03:39:06.381Z,99.90
2019-03-31T03:41:34.479Z,99.90
2019-03-31T03:44:02.972Z,99.90
2019-03-31T03:46:31.287Z,99.90
2019-03-31T03:48:59.461Z,99.90
2019-03-31T03:51:27.600Z,99.90
2019-03-31T03:56:23.106Z,99.90
2019-03-31T03:58:51.163Z,99.90
2019-03-31T04:01:20.959Z,99.90
2019-03-31T04:03:49.096Z,99.90
2019-03-31T04:06:17.154Z,99.90
2019-03-31T04:08:45.230Z,99.90
2019-03-31T04:11:21.085Z,99.90
2019-03-31T04:13:47.647Z,99.90
2019-03-31T04:16:15.785Z,99.90
2019-03-31T04:18:43.894Z,99.90
2019-03-31T04:21:11.939Z,99.90
2019-03-31T04:23:40.042Z,99.90
2019-03-31T04:26:08.622Z,99.90
2019-03-31T04:28:36.679Z,99.90
2019-03-31T04:31:04.734Z,99.90
2019-03-31T04:33:49.569Z,99.90
2019-03-31T04:36:02.633Z,99.90
2019-03-31T04:38:30.802Z,99.90
2019-03-31T04:40:58.888Z,99.90
2019-03-31T04:43:26.938Z,99.90
2019-03-31T04:45:55.026Z,99.90
2019-03-31T04:48:23.089Z,99.90
2019-03-31T04:50:52.279Z,99.90
2019-03-31T04:53:20.718Z,99.90
2019-03-31T04:55:48.854Z,99.90
2019-03-31T04:58:16.906Z,99.90
2019-03-31T05:00:44.993Z,99.90
2019-03-31T05:03:13.050Z,99.90
2019-03-31T05:05:41.142Z,99.90
2019-03-31T05:08:09.194Z,99.90
2019-03-31T05:10:37.286Z,99.90
2019-03-31T05:13:05.349Z,99.90
2019-03-31T05:15:33.455Z,99.90
2019-03-31T05:18:01.588Z,99.90
2019-03-31T05:20:29.675Z,99.90
2019-03-31T05:22:57.735Z,99.90
2019-03-31T05:25:26.116Z,99.90
2019-03-31T05:27:54.422Z,99.90
2019-03-31T05:30:22.577Z,99.90
2019-03-31T05:32:50.661Z,99.90
2019-03-31T05:35:18.825Z,99.90
2019-03-31T05:37:51.163Z,99.90
2019-03-31T05:40:16.814Z,99.90
2019-03-31T05:42:44.866Z,99.90
2019-03-31T05:45:12.954Z,99.90
2019-03-31T05:47:40.990Z,99.90
2019-03-31T05:50:09.158Z,99.90
2019-03-31T05:52:37.273Z,99.90
2019-03-31T05:55:05.421Z,99.90
2019-03-31T05:57:33.529Z,99.90
2019-03-31T06:00:01.586Z,99.90
2019-03-31T06:02:29.674Z,99.90
2019-03-31T06:04:57.718Z,99.90
2019-03-31T06:07:26.139Z,99.90
2019-03-31T06:09:54.591Z,99.90
2019-03-31T06:12:22.638Z,99.90
2019-03-31T06:14:50.730Z,99.90
2019-03-31T06:17:18.822Z,99.90
2019-03-31T06:19:46.874Z,99.90
2019-03-31T06:22:14.969Z,99.90
2019-03-31T06:24:43.013Z,99.90
2019-03-31T06:27:11.113Z,99.90
2019-03-31T06:29:39.172Z,99.90
2019-03-31T06:32:07.262Z,99.90
2019-03-31T06:34:46.881Z,99.90
2019-03-31T06:37:05.155Z,99.90
2019-03-31T06:39:34.369Z,99.90
2019-03-31T06:44:30.158Z,99.90
2019-03-31T06:49:25.695Z,99.90
2019-03-31T06:51:53.790Z,99.90
2019-03-31T06:54:21.818Z,99.90
2019-03-31T06:56:49.914Z,99.90
2019-03-31T06:59:17.978Z,99.90
2019-03-31T07:01:46.069Z,99.90
2019-03-31T07:04:14.122Z,99.90
2019-03-31T07:06:42.211Z,99.90
2019-03-31T07:09:10.274Z,99.90
2019-03-31T07:11:38.342Z,99.90
2019-03-31T07:14:06.565Z,99.90
2019-03-31T07:16:34.771Z,99.90
2019-03-31T07:19:02.984Z,99.90
2019-03-31T07:21:31.046Z,99.90
2019-03-31T07:23:59.141Z,99.90
2019-03-31T07:26:27.294Z,99.90
2019-03-31T07:28:55.374Z,99.90
2019-03-31T07:31:23.431Z,99.90
2019-03-31T07:33:51.521Z,99.90
2019-03-31T07:36:19.589Z,99.90
2019-03-31T07:38:48.009Z,99.90
2019-03-31T07:41:19.327Z,99.90
2019-03-31T07:43:47.430Z,99.90
2019-03-31T07:46:15.556Z,99.90
2019-03-31T07:48:43.655Z,99.90
2019-03-31T07:51:11.786Z,99.90
2019-03-31T07:53:39.888Z,99.90
2019-03-31T07:56:07.926Z,99.90
2019-03-31T07:58:36.347Z,99.90
2019-03-31T08:01:04.405Z,99.90
2019-03-31T08:03:32.488Z,99.90
2019-03-31T08:06:00.528Z,99.90
2019-03-31T08:08:28.798Z,99.90
2019-03-31T08:10:57.319Z,99.90
2019-03-31T08:13:25.396Z,99.90
2019-03-31T08:15:53.585Z,99.90
2019-03-31T08:18:21.780Z,99.90
2019-03-31T08:20:50.210Z,99.90
2019-03-31T08:23:18.618Z,99.90
2019-03-31T08:25:46.753Z,99.90
2019-03-31T08:28:14.862Z,99.90
2019-03-31T08:30:43.007Z,99.90
2019-03-31T08:33:11.103Z,99.90
2019-03-31T08:35:47.143Z,99.90
2019-03-31T08:38:09.325Z,99.90
2019-03-31T08:40:37.747Z,99.90
2019-03-31T08:43:05.838Z,99.90
2019-03-31T08:45:34.226Z,99.90
2019-03-31T08:48:02.385Z,99.90
2019-03-31T08:50:30.475Z,99.90
2019-03-31T08:52:58.629Z,99.90
2019-03-31T08:55:26.721Z,99.90
2019-03-31T08:57:54.891Z,99.90
2019-03-31T09:00:28.810Z,99.90
2019-03-31T09:02:57.006Z,99.90
2019-03-31T09:05:25.162Z,99.90
2019-03-31T09:07:53.651Z,99.90
2019-03-31T09:10:21.810Z,99.90
2019-03-31T09:12:49.966Z,99.90
2019-03-31T09:15:18.074Z,99.90
2019-03-31T09:17:46.220Z,99.90
2019-03-31T09:20:14.530Z,99.90
2019-03-31T09:22:42.666Z,99.90
2019-03-31T09:25:10.826Z,99.90
2019-03-31T09:27:39.021Z,99.90
2019-03-31T09:30:08.770Z,99.90
2019-03-31T09:32:36.935Z,99.90
2019-03-31T09:35:05.564Z,99.90
2019-03-31T09:37:35.932Z,99.90
2019-03-31T09:40:04.479Z,99.90
2019-03-31T09:42:32.662Z,99.90
2019-03-31T09:45:00.826Z,99.90
2019-03-31T09:47:28.918Z,99.90
2019-03-31T09:50:00.453Z,99.90
2019-03-31T09:52:28.777Z,99.90
2019-03-31T09:54:56.939Z,99.90
2019-03-31T09:57:25.086Z,99.90
2019-03-31T09:59:53.190Z,99.90
2019-03-31T10:02:21.325Z,99.90
2019-03-31T10:04:49.430Z,99.90
2019-03-31T10:07:17.802Z,99.90
2019-03-31T10:09:46.062Z,99.90
2019-03-31T10:12:14.146Z,99.90
2019-03-31T10:14:42.230Z,99.90
2019-03-31T10:17:10.286Z,99.90
2019-03-31T10:19:38.422Z,99.90
2019-03-31T10:22:06.846Z,99.90
2019-03-31T10:24:35.222Z,99.90
2019-03-31T10:27:03.694Z,99.90
2019-03-31T10:29:31.867Z,99.90
2019-03-31T10:31:59.966Z,99.90
2019-03-31T10:34:28.322Z,99.90
2019-03-31T10:36:56.438Z,99.90
2019-03-31T10:39:24.610Z,99.90
2019-03-31T10:41:52.777Z,99.90
2019-03-31T10:44:20.926Z,99.90
2019-03-31T10:46:49.282Z,99.90
2019-03-31T10:49:17.371Z,99.90
2019-03-31T10:51:45.770Z,99.90
2019-03-31T10:54:14.132Z,99.90
2019-03-31T10:56:42.199Z,99.90
2019-03-31T10:59:10.586Z,99.90
2019-03-31T11:01:38.687Z,99.90
2019-03-31T11:04:06.838Z,99.90
2019-03-31T11:06:34.959Z,99.90
2019-03-31T11:09:05.207Z,99.90
2019-03-31T11:11:33.340Z,99.90
2019-03-31T11:14:01.790Z,99.90
2019-03-31T11:16:29.978Z,99.90
2019-03-31T11:18:58.141Z,99.90
2019-03-31T11:21:45.434Z,99.90
2019-03-31T11:24:13.530Z,99.90
2019-03-31T11:26:41.636Z,99.90
2019-03-31T11:29:09.786Z,99.90
2019-03-31T11:31:37.884Z,99.90
2019-03-31T11:34:06.037Z,99.90
2019-03-31T11:36:34.406Z,99.90
2019-03-31T11:39:02.493Z,99.90
2019-03-31T11:41:30.669Z,99.90
2019-03-31T11:43:58.928Z,99.90
2019-03-31T11:46:27.022Z,99.90
2019-03-31T11:48:55.174Z,99.90
2019-03-31T11:51:23.286Z,99.90
2019-03-31T11:53:51.826Z,99.90
2019-03-31T11:56:19.918Z,99.90
2019-03-31T11:58:47.981Z,99.90
2019-03-31T12:01:16.162Z,99.90
2019-03-31T12:03:44.222Z,99.90
2019-03-31T12:06:12.312Z,99.90
2019-03-31T12:08:40.390Z,99.90
2019-03-31T12:11:08.547Z,99.90
2019-03-31T12:13:36.643Z,99.90
2019-03-31T12:16:04.799Z,99.80
2019-03-31T12:18:32.882Z,99.80
2019-03-31T12:21:01.051Z,98.80
2019-03-31T12:23:29.438Z,98.40
2019-03-31T12:25:57.628Z,97.70
2019-03-31T12:28:25.790Z,96.50
2019-03-31T12:30:53.954Z,95.70
2019-03-31T12:33:22.030Z,92.90
2019-03-31T12:35:50.087Z,91.70
2019-03-31T12:38:18.296Z,90.90
2019-03-31T12:40:46.445Z,90.00
2019-03-31T12:43:14.539Z,89.30
2019-03-31T12:45:43.327Z,89.50
2019-03-31T12:48:11.802Z,87.10
2019-03-31T12:50:40.099Z,85.00
2019-03-31T12:53:08.264Z,84.40
2019-03-31T12:55:36.802Z,84.80
2019-03-31T12:58:04.898Z,85.30
2019-03-31T13:00:33.044Z,85.10
2019-03-31T13:03:01.170Z,86.00
2019-03-31T13:05:29.394Z,86.80
2019-03-31T13:07:57.506Z,81.90
2019-03-31T13:10:25.657Z,83.00
2019-03-31T13:12:53.758Z,83.80
2019-03-31T13:15:21.897Z,85.00
2019-03-31T13:17:49.998Z,83.20
2019-03-31T13:20:18.231Z,82.10
2019-03-31T13:22:46.342Z,82.40
2019-03-31T13:25:14.707Z,80.30
2019-03-31T13:27:42.788Z,81.10
2019-03-31T13:30:10.952Z,80.00
2019-03-31T13:32:39.035Z,79.00
2019-03-31T13:35:08.565Z,78.40
2019-03-31T13:37:37.027Z,76.30
2019-03-31T13:40:05.320Z,76.10
2019-03-31T13:42:33.465Z,77.80
2019-03-31T13:45:01.568Z,79.80
2019-03-31T13:47:29.714Z,81.40
2019-03-31T13:49:57.822Z,81.20
2019-03-31T13:52:25.969Z,82.00
2019-03-31T13:54:54.077Z,81.40
2019-03-31T13:57:22.868Z,81.60
2019-03-31T13:59:51.423Z,80.20
2019-03-31T14:02:19.709Z,78.80
2019-03-31T14:04:51.866Z,78.50
2019-03-31T14:07:17.694Z,77.90
2019-03-31T14:09:45.978Z,76.70
2019-03-31T14:12:14.126Z,75.90
2019-03-31T14:14:42.752Z,76.20
2019-03-31T14:17:11.195Z,74.50
2019-03-31T14:19:39.286Z,73.00
2019-03-31T14:22:07.743Z,72.20
2019-03-31T14:24:35.836Z,71.10
2019-03-31T14:27:04.235Z,71.10
2019-03-31T14:29:32.386Z,70.60
2019-03-31T14:32:00.438Z,71.10
2019-03-31T14:34:28.658Z,74.40
2019-03-31T14:36:56.786Z,74.60
2019-03-31T14:39:24.941Z,69.50
2019-03-31T14:41:53.350Z,68.90
2019-03-31T14:44:21.454Z,67.00
2019-03-31T14:46:49.586Z,68.50
2019-03-31T14:49:17.753Z,67.10
2019-03-31T14:51:46.160Z,66.00
2019-03-31T14:54:14.546Z,65.20
2019-03-31T14:56:42.699Z,63.60
2019-03-31T14:59:11.094Z,62.40
2019-03-31T15:01:39.153Z,61.30
2019-03-31T15:04:07.247Z,62.10
2019-03-31T15:06:35.321Z,62.00
2019-03-31T15:09:05.516Z,61.40
2019-03-31T15:11:33.609Z,61.00
2019-03-31T15:14:01.682Z,59.70
2019-03-31T15:16:29.757Z,59.30
2019-03-31T15:18:57.806Z,59.00
2019-03-31T15:21:25.913Z,58.00
2019-03-31T15:23:54.058Z,57.10
2019-03-31T15:26:22.150Z,56.20
2019-03-31T15:28:50.195Z,56.50
2019-03-31T15:31:18.301Z,56.70
2019-03-31T15:33:46.467Z,56.90
2019-03-31T15:36:14.612Z,56.80
2019-03-31T15:38:42.720Z,56.70
2019-03-31T15:41:21.186Z,55.90
2019-03-31T15:43:40.682Z,54.50
2019-03-31T15:46:09.114Z,53.50
2019-03-31T15:48:37.233Z,53.70
2019-03-31T15:51:05.445Z,53.10
2019-03-31T15:53:33.887Z,53.30
2019-03-31T15:56:02.113Z,51.50
2019-03-31T15:58:30.305Z,50.80
2019-03-31T16:00:58.430Z,50.30
2019-03-31T16:03:26.495Z,49.10
2019-03-31T16:05:54.609Z,46.90
2019-03-31T16:30:39.223Z,41.20
2019-03-31T16:33:07.492Z,42.50
2019-03-31T16:35:35.383Z,43.20
2019-03-31T16:38:03.253Z,43.60
2019-03-31T16:40:31.354Z,44.30
2019-03-31T16:42:59.200Z,43.60
2019-03-31T16:45:27.053Z,44.40
2019-03-31T16:47:54.934Z,44.20
2019-03-31T16:52:52.601Z,40.20
2019-03-31T16:55:20.240Z,40.60
2019-03-31T16:57:48.146Z,40.90
2019-03-31T17:00:16.089Z,41.20
2019-03-31T17:02:43.985Z,41.60
2019-03-31T17:05:21.562Z,43.30
2019-03-31T17:07:41.841Z,44.80
2019-03-31T17:10:09.711Z,45.10
2019-03-31T17:12:37.686Z,45.20
2019-03-31T17:15:06.113Z,44.80
2019-03-31T17:17:33.952Z,45.60
2019-03-31T17:20:02.062Z,46.10
2019-03-31T17:22:29.895Z,46.80
2019-03-31T17:24:58.034Z,47.30
2019-03-31T17:27:25.955Z,47.90
2019-03-31T17:29:53.774Z,48.10
2019-03-31T17:32:21.670Z,48.90
2019-03-31T17:34:49.510Z,50.50
2019-03-31T17:37:17.480Z,51.60
2019-03-31T17:39:45.353Z,52.40
2019-03-31T17:42:13.235Z,53.40
2019-03-31T17:44:41.086Z,54.20
2019-03-31T17:47:08.975Z,55.90
2019-03-31T17:49:36.823Z,56.50
2019-03-31T17:52:04.743Z,57.80
2019-03-31T17:54:32.553Z,59.60
2019-03-31T17:57:01.263Z,61.40
2019-03-31T17:59:29.126Z,69.50
2019-03-31T18:01:57.450Z,69.90
2019-03-31T18:04:25.254Z,69.40
2019-03-31T18:06:53.119Z,67.80
2019-03-31T18:09:21.009Z,68.90
2019-03-31T18:11:48.873Z,69.70
2019-03-31T18:14:16.755Z,72.40
2019-03-31T18:16:44.606Z,72.50
2019-03-31T18:19:12.488Z,73.10
2019-03-31T18:21:40.342Z,71.70
2019-03-31T18:24:08.482Z,72.10
2019-03-31T18:26:36.358Z,72.50
2019-03-31T18:29:04.170Z,73.10
2019-03-31T18:31:32.298Z,74.60
2019-03-31T18:34:00.106Z,75.40
2019-03-31T18:36:36.522Z,76.80
2019-03-31T18:38:57.475Z,77.80
2019-03-31T18:41:25.321Z,79.30
2019-03-31T18:43:53.213Z,80.10
2019-03-31T18:46:21.055Z,82.10
2019-03-31T18:48:49.026Z,82.40
2019-03-31T18:51:16.924Z,83.40
2019-03-31T18:53:52.867Z,84.50
2019-03-31T18:56:43.038Z,86.00
2019-03-31T18:59:29.100Z,87.40
2019-03-31T19:02:12.875Z,88.60
2019-03-31T19:04:59.014Z,89.20
2019-03-31T19:07:46.971Z,89.90
2019-03-31T19:10:30.260Z,90.10
2019-03-31T19:13:08.385Z,90.50
2019-03-31T19:15:44.354Z,90.60
2019-03-31T19:18:33.200Z,90.80
2019-03-31T19:21:11.147Z,90.40
2019-03-31T19:23:46.457Z,90.70
2019-03-31T19:26:47.693Z,90.40
2019-03-31T19:29:17.131Z,90.90
2019-03-31T19:32:03.704Z,90.90
2019-03-31T19:34:42.346Z,90.90
2019-03-31T19:37:20.629Z,91.40
2019-03-31T19:40:08.806Z,91.50
2019-03-31T19:42:47.910Z,91.50
2019-03-31T19:45:33.857Z,91.90
2019-03-31T19:48:20.854Z,92.30
2019-03-31T19:51:06.971Z,92.60
2019-03-31T19:53:57.620Z,92.70
2019-03-31T19:56:34.523Z,92.90
2019-03-31T19:59:13.764Z,93.10
2019-03-31T20:01:47.151Z,93.20
2019-03-31T20:04:24.939Z,93.40
2019-03-31T20:07:11.086Z,93.60
2019-03-31T20:09:56.606Z,93.90
2019-03-31T20:12:50.055Z,94.40
2019-03-31T20:15:44.378Z,94.90
2019-03-31T20:18:28.918Z,94.70
2019-03-31T20:21:05.926Z,95.00
2019-03-31T20:23:46.062Z,94.70
2019-03-31T20:26:39.566Z,94.50
2019-03-31T20:29:26.578Z,94.80
2019-03-31T20:32:06.521Z,94.80
2019-03-31T20:35:03.004Z,95.20
2019-03-31T20:37:41.774Z,95.20
2019-03-31T20:40:34.202Z,95.80
2019-03-31T20:43:22.782Z,95.90
2019-03-31T20:45:50.589Z,95.50
2019-03-31T20:48:18.750Z,95.70
2019-03-31T20:50:48.176Z,95.90
2019-03-31T20:53:16.062Z,95.80
2019-03-31T20:55:44.186Z,95.70
2019-03-31T20:58:12.005Z,95.80
2019-03-31T21:00:39.877Z,96.60
2019-03-31T21:03:07.742Z,96.60
2019-03-31T21:05:35.582Z,96.90
2019-03-31T21:08:03.502Z,96.90
2019-03-31T21:10:31.313Z,97.20
2019-03-31T21:12:59.624Z,97.10
2019-03-31T21:15:27.472Z,97.20
2019-03-31T21:17:55.381Z,97.20
2019-03-31T21:20:23.297Z,97.40
2019-03-31T21:22:51.219Z,97.20
2019-03-31T21:25:19.030Z,97.40
2019-03-31T21:27:46.922Z,97.50
2019-03-31T21:30:14.946Z,97.60
2019-03-31T21:32:42.813Z,97.50
2019-03-31T21:35:10.898Z,97.20
2019-03-31T21:37:38.711Z,97.50
2019-03-31T21:40:06.749Z,97.50
2019-03-31T21:42:34.630Z,97.50
2019-03-31T21:45:02.517Z,97.70
2019-03-31T21:47:30.381Z,97.50
2019-03-31T21:49:58.243Z,97.90
2019-03-31T21:52:26.363Z,98.10
2019-03-31T21:54:54.201Z,98.30
2019-03-31T21:57:25.900Z,98.10
2019-03-31T21:59:53.977Z,98.30
2019-03-31T22:02:22.056Z,98.10
2019-03-31T22:04:49.855Z,98.10
2019-03-31T22:07:17.698Z,98.10
2019-03-31T22:09:45.608Z,99.10
2019-03-31T22:12:13.725Z,98.90
2019-03-31T22:14:41.536Z,99.60
2019-03-31T22:17:09.471Z,99.00
2019-03-31T22:19:37.276Z,99.20
2019-03-31T22:22:05.106Z,99.70
2019-03-31T22:24:32.990Z,99.90
2019-03-31T22:27:00.939Z,99.90
2019-03-31T22:29:28.829Z,99.90
2019-03-31T22:31:56.698Z,99.90
2019-03-31T22:34:24.567Z,99.90
2019-03-31T22:36:52.433Z,99.90
2019-03-31T22:39:20.669Z,99.90
2019-03-31T22:41:48.578Z,99.90
2019-03-31T22:44:16.429Z,99.90
2019-03-31T22:46:54.250Z,99.90
2019-03-31T22:49:14.506Z,99.90
2019-03-31T22:51:42.297Z,99.90
2019-03-31T22:54:10.161Z,99.90
2019-03-31T22:56:38.050Z,99.90
2019-03-31T22:59:05.890Z,99.90
2019-03-31T23:01:52.943Z,99.90
2019-03-31T23:04:20.850Z,99.90
2019-03-31T23:06:48.662Z,99.90
2019-03-31T23:09:16.518Z,99.90
2019-03-31T23:11:44.670Z,99.90
2019-03-31T23:14:12.444Z,99.90
2019-03-31T23:16:40.342Z,99.90
2019-03-31T23:19:08.180Z,99.90
2019-03-31T23:21:36.074Z,99.90
2019-03-31T23:24:03.989Z,99.90
2019-03-31T23:26:31.877Z,99.90
2019-03-31T23:28:59.757Z,99.90
2019-03-31T23:31:27.642Z,99.90
2019-03-31T23:33:55.487Z,99.90
2019-03-31T23:36:23.378Z,99.90
2019-03-31T23:38:51.494Z,99.90
2019-03-31T23:41:19.394Z,99.90
2019-03-31T23:43:47.269Z,99.90
2019-03-31T23:46:15.149Z,99.90
2019-03-31T23:48:43.040Z,99.90
2019-03-31T23:51:10.888Z,99.90
2019-03-31T23:53:38.749Z,99.90
2019-03-31T23:56:06.653Z,99.90
2019-03-31T23:58:34.469Z,99.90
